createdAt,value
2018-01-14T00:01:23.355Z,19.83
2018-01-14T00:03:51.690Z,24.67
2018-01-14T00:06:20.224Z,22.43
2018-01-14T00:08:48.626Z,20.23
2018-01-14T00:11:17.823Z,20.83
2018-01-14T00:13:47.206Z,23.00
2018-01-14T00:16:15.561Z,25.40
2018-01-14T00:18:43.925Z,22.10
2018-01-14T00:21:12.321Z,21.53
2018-01-14T00:23:40.861Z,21.20
2018-01-14T00:26:09.442Z,19.87
2018-01-14T00:28:38.771Z,36.73
2018-01-14T00:31:07.148Z,22.07
2018-01-14T00:33:35.534Z,27.30
2018-01-14T00:36:04.013Z,21.20
2018-01-14T00:38:32.374Z,19.70
2018-01-14T00:41:00.752Z,20.33
2018-01-14T00:43:29.162Z,19.97
2018-01-14T00:45:57.595Z,22.97
2018-01-14T00:48:25.986Z,19.60
2018-01-14T00:50:54.559Z,22.13
2018-01-14T00:53:22.984Z,21.43
2018-01-14T00:55:51.447Z,19.20
2018-01-14T00:58:19.877Z,23.03
2018-01-14T01:00:49.391Z,18.93
2018-01-14T01:03:18.767Z,19.77
2018-01-14T01:05:47.286Z,19.67
2018-01-14T01:08:15.788Z,22.10
2018-01-14T01:10:44.164Z,18.20
2018-01-14T01:13:12.735Z,18.17
2018-01-14T01:15:41.126Z,19.13
2018-01-14T01:18:09.496Z,18.67
2018-01-14T01:20:37.970Z,21.23
2018-01-14T01:23:06.511Z,21.10
2018-01-14T01:25:34.995Z,19.53
2018-01-14T01:28:04.393Z,19.70
2018-01-14T01:30:33.543Z,16.57
2018-01-14T01:33:02.017Z,21.20
2018-01-14T01:35:30.367Z,18.83
2018-01-14T01:37:59.726Z,19.83
2018-01-14T01:40:28.255Z,19.23
2018-01-14T01:42:56.658Z,20.17
2018-01-14T01:45:25.010Z,22.43
2018-01-14T01:47:53.581Z,22.23
2018-01-14T01:50:22.731Z,23.60
2018-01-14T01:52:52.011Z,22.23
2018-01-14T01:55:20.466Z,19.33
2018-01-14T01:57:49.092Z,18.03
2018-01-14T02:00:17.653Z,19.63
2018-01-14T02:02:46.034Z,18.00
2018-01-14T02:05:14.390Z,20.03
2018-01-14T02:07:42.891Z,19.47
2018-01-14T02:10:11.331Z,20.73
2018-01-14T02:12:39.931Z,19.83
2018-01-14T02:15:08.332Z,23.13
2018-01-14T02:17:36.705Z,20.07
2018-01-14T02:20:05.109Z,20.50
2018-01-14T02:22:33.743Z,21.20
2018-01-14T02:25:02.267Z,24.57
2018-01-14T02:27:31.757Z,22.70
2018-01-14T02:30:00.315Z,22.23
2018-01-14T02:32:29.575Z,21.53
2018-01-14T02:34:58.036Z,22.03
2018-01-14T02:37:26.569Z,21.70
2018-01-14T02:39:56.495Z,23.00
2018-01-14T02:42:25.744Z,20.20
2018-01-14T02:44:54.362Z,24.97
2018-01-14T02:47:23.643Z,23.60
2018-01-14T02:49:52.180Z,20.37
2018-01-14T02:52:20.807Z,22.27
2018-01-14T02:54:49.506Z,22.27
2018-01-14T02:57:18.648Z,19.40
2018-01-14T02:59:46.985Z,23.03
2018-01-14T03:02:16.131Z,23.00
2018-01-14T03:04:44.491Z,20.17
2018-01-14T03:07:12.875Z,19.27
2018-01-14T03:09:41.307Z,20.97
2018-01-14T03:12:10.432Z,20.70
2018-01-14T03:14:38.893Z,21.53
2018-01-14T03:17:08.214Z,18.27
2018-01-14T03:19:36.703Z,19.23
2018-01-14T03:22:06.111Z,22.17
2018-01-14T03:24:34.480Z,20.43
2018-01-14T03:27:02.825Z,19.07
2018-01-14T03:29:31.985Z,19.87
2018-01-14T03:32:00.529Z,21.50
2018-01-14T03:34:28.965Z,21.80
2018-01-14T03:36:57.512Z,20.00
2018-01-14T03:39:25.897Z,19.43
2018-01-14T03:41:54.425Z,20.07
2018-01-14T03:44:23.568Z,18.83
2018-01-14T03:46:51.985Z,18.63
2018-01-14T03:49:20.595Z,19.00
2018-01-14T03:51:49.252Z,22.07
2018-01-14T03:54:17.736Z,20.23
2018-01-14T03:56:47.007Z,20.27
2018-01-14T03:59:15.625Z,19.00
2018-01-14T04:01:43.995Z,18.57
2018-01-14T04:04:12.372Z,21.10
2018-01-14T04:06:40.832Z,20.00
2018-01-14T04:09:09.285Z,20.50
2018-01-14T04:11:37.869Z,18.23
2018-01-14T04:14:06.520Z,20.97
2018-01-14T04:16:35.799Z,20.57
2018-01-14T04:19:04.904Z,20.60
2018-01-14T04:21:33.346Z,19.90
2018-01-14T04:24:01.883Z,19.07
2018-01-14T04:26:30.314Z,21.33
2018-01-14T04:28:58.830Z,20.93
2018-01-14T04:31:27.383Z,22.30
2018-01-14T04:33:55.951Z,20.47
2018-01-14T04:36:24.633Z,23.47
2018-01-14T04:38:53.098Z,20.33
2018-01-14T04:41:21.581Z,18.47
2018-01-14T04:43:49.977Z,19.03
2018-01-14T04:46:18.432Z,20.50
2018-01-14T04:48:46.923Z,18.90
2018-01-14T04:51:15.322Z,21.63
2018-01-14T04:53:43.804Z,18.60
2018-01-14T04:56:12.970Z,19.63
2018-01-14T04:58:41.482Z,20.30
2018-01-14T05:01:09.991Z,22.90
2018-01-14T05:03:39.349Z,22.93
2018-01-14T05:06:07.676Z,23.53
2018-01-14T05:08:36.846Z,24.83
2018-01-14T05:11:05.465Z,20.13
2018-01-14T05:13:33.832Z,17.50
2018-01-14T05:16:03.679Z,22.87
2018-01-14T05:18:32.025Z,21.30
2018-01-14T05:21:00.434Z,26.63
2018-01-14T05:23:28.989Z,24.47
2018-01-14T05:25:58.320Z,20.37
2018-01-14T05:28:26.746Z,20.33
2018-01-14T05:30:56.107Z,23.23
2018-01-14T05:33:24.592Z,21.80
2018-01-14T05:35:53.076Z,19.40
2018-01-14T05:38:21.711Z,20.40
2018-01-14T05:40:50.102Z,23.13
2018-01-14T05:43:18.602Z,23.60
2018-01-14T05:45:46.952Z,20.07
2018-01-14T05:48:15.622Z,23.53
2018-01-14T05:50:44.792Z,23.30
2018-01-14T05:53:13.268Z,24.10
2018-01-14T05:55:41.738Z,25.50
2018-01-14T05:58:10.111Z,21.20
2018-01-14T06:00:38.607Z,21.60
2018-01-14T06:03:06.640Z,19.97
2018-01-14T06:05:35.057Z,24.73
2018-01-14T06:08:03.219Z,24.73
2018-01-14T06:10:31.984Z,22.37
2018-01-14T06:13:00.360Z,24.50
2018-01-14T06:15:28.894Z,25.63
2018-01-14T06:17:57.527Z,26.80
2018-01-14T06:20:26.059Z,22.20
2018-01-14T06:22:54.566Z,24.20
2018-01-14T06:25:23.693Z,24.40
2018-01-14T06:27:52.532Z,24.80
2018-01-14T06:30:21.035Z,23.30
2018-01-14T06:32:49.388Z,24.67
2018-01-14T06:35:18.516Z,23.77
2018-01-14T06:37:46.956Z,24.17
2018-01-14T06:40:15.359Z,23.97
2018-01-14T06:42:43.853Z,22.23
2018-01-14T06:45:12.263Z,24.13
2018-01-14T06:47:40.792Z,23.43
2018-01-14T06:50:09.926Z,25.27
2018-01-14T06:52:38.308Z,25.70
2018-01-14T06:55:06.833Z,24.10
2018-01-14T06:57:35.360Z,21.27
2018-01-14T07:00:03.500Z,24.57
2018-01-14T07:02:32.688Z,24.67
2018-01-14T07:05:01.961Z,23.13
2018-01-14T07:07:30.475Z,24.40
2018-01-14T07:09:59.663Z,24.50
2018-01-14T07:12:28.964Z,22.47
2018-01-14T07:14:57.328Z,21.27
2018-01-14T07:17:25.708Z,20.83
2018-01-14T07:19:54.087Z,22.23
2018-01-14T07:22:22.611Z,24.47
2018-01-14T07:24:51.012Z,20.93
2018-01-14T07:27:19.563Z,20.53
2018-01-14T07:29:48.070Z,19.50
2018-01-14T07:32:16.471Z,23.47
2018-01-14T07:34:44.864Z,22.07
2018-01-14T07:37:13.504Z,22.73
2018-01-14T07:39:41.923Z,23.00
2018-01-14T07:42:10.423Z,22.60
2018-01-14T07:44:39.878Z,23.53
2018-01-14T07:47:08.286Z,22.63
2018-01-14T07:49:36.759Z,25.77
2018-01-14T07:52:05.144Z,23.63
2018-01-14T07:54:33.726Z,20.10
2018-01-14T07:57:02.205Z,22.63
2018-01-14T07:59:30.744Z,21.93
2018-01-14T08:01:59.415Z,20.80
2018-01-14T08:04:27.793Z,25.97
2018-01-14T08:06:56.172Z,17.80
2018-01-14T08:09:24.752Z,20.13
2018-01-14T08:11:53.151Z,20.60
2018-01-14T08:14:21.667Z,21.70
2018-01-14T08:16:50.187Z,21.13
2018-01-14T08:19:19.356Z,20.43
2018-01-14T08:21:47.763Z,20.33
2018-01-14T08:24:16.886Z,21.67
2018-01-14T08:26:45.396Z,21.17
2018-01-14T08:29:14.017Z,19.13
2018-01-14T08:31:43.355Z,20.97
2018-01-14T08:34:11.733Z,19.30
2018-01-14T08:36:40.140Z,21.20
2018-01-14T08:39:08.674Z,23.80
2018-01-14T08:41:38.061Z,21.23
2018-01-14T08:44:06.810Z,23.17
2018-01-14T08:46:35.472Z,19.47
2018-01-14T08:49:03.886Z,20.47
2018-01-14T08:51:32.432Z,24.10
2018-01-14T08:54:00.928Z,19.40
2018-01-14T08:56:30.336Z,21.90
2018-01-14T08:58:58.718Z,21.83
2018-01-14T09:01:32.822Z,23.00
2018-01-14T09:04:01.202Z,21.37
2018-01-14T09:06:29.555Z,22.93
2018-01-14T09:08:58.084Z,23.23
2018-01-14T09:11:26.602Z,21.60
2018-01-14T09:13:55.000Z,23.50
2018-01-14T09:16:23.380Z,21.07
2018-01-14T09:18:51.756Z,22.80
2018-01-14T09:21:20.298Z,25.83
2018-01-14T09:23:49.498Z,23.40
2018-01-14T09:26:18.737Z,22.40
2018-01-14T09:28:47.245Z,22.40
2018-01-14T09:31:15.870Z,22.43
2018-01-14T09:33:44.310Z,23.17
2018-01-14T09:36:12.691Z,25.70
2018-01-14T09:38:41.188Z,23.70
2018-01-14T09:41:09.776Z,23.17
2018-01-14T09:43:38.838Z,24.23
2018-01-14T09:46:07.352Z,26.47
2018-01-14T09:48:36.562Z,25.17
2018-01-14T09:51:05.188Z,25.97
2018-01-14T09:53:33.584Z,24.17
2018-01-14T09:56:02.147Z,28.37
2018-01-14T09:58:30.733Z,22.60
2018-01-14T10:00:59.130Z,26.10
2018-01-14T10:03:28.618Z,23.60
2018-01-14T10:05:56.979Z,24.50
2018-01-14T10:08:25.363Z,24.13
2018-01-14T10:10:53.900Z,25.67
2018-01-14T10:13:23.028Z,27.23
2018-01-14T10:15:51.707Z,23.93
2018-01-14T10:18:20.133Z,26.67
2018-01-14T10:20:48.495Z,27.07
2018-01-14T10:23:16.895Z,25.30
2018-01-14T10:25:45.263Z,26.10
2018-01-14T10:28:13.673Z,26.33
2018-01-14T10:30:42.044Z,26.53
2018-01-14T10:33:10.533Z,24.67
2018-01-14T10:35:43.145Z,25.73
2018-01-14T10:38:11.686Z,24.33
2018-01-14T10:40:40.827Z,26.20
2018-01-14T10:43:09.367Z,25.80
2018-01-14T10:45:38.514Z,25.80
2018-01-14T10:48:09.942Z,26.77
2018-01-14T10:50:38.338Z,23.97
2018-01-14T10:53:07.509Z,22.93
2018-01-14T10:55:37.838Z,25.20
2018-01-14T10:58:06.228Z,24.10
2018-01-14T11:00:40.171Z,24.37
2018-01-14T11:03:08.533Z,26.70
2018-01-14T11:05:36.965Z,23.33
2018-01-14T11:08:05.540Z,21.93
2018-01-14T11:10:34.080Z,22.73
2018-01-14T11:13:02.498Z,22.03
2018-01-14T11:15:31.172Z,24.93
2018-01-14T11:18:00.465Z,23.63
2018-01-14T11:20:30.031Z,23.47
2018-01-14T11:22:58.417Z,20.97
2018-01-14T11:25:26.810Z,25.30
2018-01-14T11:27:54.597Z,24.07
2018-01-14T11:30:23.048Z,24.93
2018-01-14T11:32:51.530Z,22.23
2018-01-14T11:35:19.927Z,25.10
2018-01-14T11:37:49.681Z,22.23
2018-01-14T11:40:18.064Z,24.03
2018-01-14T11:42:46.464Z,23.50
2018-01-14T11:45:14.881Z,24.50
2018-01-14T11:47:44.284Z,21.27
2018-01-14T11:50:13.751Z,22.50
2018-01-14T11:52:42.340Z,22.93
2018-01-14T11:55:10.889Z,23.57
2018-01-14T11:57:39.279Z,24.13
2018-01-14T12:00:07.795Z,22.60
2018-01-14T12:02:37.213Z,21.30
2018-01-14T12:05:06.384Z,18.80
2018-01-14T12:07:34.803Z,23.00
2018-01-14T12:10:03.238Z,21.47
2018-01-14T12:12:31.634Z,23.63
2018-01-14T12:15:00.033Z,25.77
2018-01-14T12:17:29.176Z,22.27
2018-01-14T12:19:57.615Z,18.67
2018-01-14T12:22:26.730Z,23.90
2018-01-14T12:24:55.100Z,21.30
2018-01-14T12:27:23.466Z,22.23
2018-01-14T12:29:51.972Z,21.90
2018-01-14T12:32:20.002Z,22.57
2018-01-14T12:34:53.280Z,22.90
2018-01-14T12:37:21.634Z,25.10
2018-01-14T12:39:50.402Z,24.87
2018-01-14T12:42:18.782Z,21.07
2018-01-14T12:44:47.294Z,20.50
2018-01-14T12:47:15.732Z,24.17
2018-01-14T12:49:45.134Z,19.73
2018-01-14T12:52:13.547Z,23.50
2018-01-14T12:54:43.546Z,22.70
2018-01-14T12:57:12.058Z,25.57
2018-01-14T12:59:40.437Z,24.87
2018-01-14T13:02:08.793Z,24.20
2018-01-14T13:04:37.167Z,21.47
2018-01-14T13:07:05.921Z,26.30
2018-01-14T13:09:34.450Z,23.93
2018-01-14T13:12:03.004Z,24.87
2018-01-14T13:14:31.375Z,22.07
2018-01-14T13:16:59.806Z,24.27
2018-01-14T13:19:28.212Z,24.50
2018-01-14T13:21:56.566Z,23.37
2018-01-14T13:24:25.703Z,28.30
2018-01-14T13:26:54.071Z,23.77
2018-01-14T13:29:22.508Z,24.90
2018-01-14T13:31:51.081Z,22.20
2018-01-14T13:34:19.430Z,22.60
2018-01-14T13:36:48.349Z,24.43
2018-01-14T13:39:16.722Z,26.90
2018-01-14T13:41:45.114Z,24.13
2018-01-14T13:44:13.460Z,27.90
2018-01-14T13:46:41.941Z,23.00
2018-01-14T13:49:10.293Z,23.27
2018-01-14T13:51:38.651Z,27.83
2018-01-14T13:54:07.032Z,23.33
2018-01-14T13:56:35.660Z,26.27
2018-01-14T13:59:03.714Z,24.10
2018-01-14T14:01:32.177Z,20.57
2018-01-14T14:04:00.542Z,23.87
2018-01-14T14:06:28.899Z,24.13
2018-01-14T14:08:58.019Z,23.67
2018-01-14T14:11:26.417Z,26.33
2018-01-14T14:13:54.821Z,22.50
2018-01-14T14:16:23.202Z,25.07
2018-01-14T14:18:53.091Z,22.70
2018-01-14T14:21:21.488Z,24.60
2018-01-14T14:23:49.847Z,24.83
2018-01-14T14:26:18.207Z,23.00
2018-01-14T14:28:46.600Z,23.67
2018-01-14T14:31:14.980Z,22.27
2018-01-14T14:33:43.479Z,22.03
2018-01-14T14:36:11.855Z,25.70
2018-01-14T14:38:40.207Z,23.20
2018-01-14T14:41:08.574Z,23.30
2018-01-14T14:43:36.943Z,25.53
2018-01-14T14:46:05.405Z,22.43
2018-01-14T14:48:33.939Z,23.03
2018-01-14T14:51:02.313Z,21.87
2018-01-14T14:53:32.201Z,26.93
2018-01-14T14:56:00.609Z,21.70
2018-01-14T14:58:29.067Z,22.20
2018-01-14T15:00:57.466Z,24.27
2018-01-14T15:03:25.841Z,23.80
2018-01-14T15:05:54.516Z,24.83
2018-01-14T15:08:22.874Z,22.90
2018-01-14T15:10:51.274Z,23.90
2018-01-14T15:13:19.922Z,23.60
2018-01-14T15:15:49.983Z,26.73
2018-01-14T15:18:18.434Z,24.20
2018-01-14T15:20:47.696Z,23.80
2018-01-14T15:23:16.054Z,23.53
2018-01-14T15:25:44.591Z,22.37
2018-01-14T15:28:13.736Z,23.10
2018-01-14T15:30:45.519Z,23.93
2018-01-14T15:33:13.887Z,21.27
2018-01-14T15:35:42.345Z,24.90
2018-01-14T15:38:10.721Z,21.80
2018-01-14T15:40:39.069Z,21.00
2018-01-14T15:43:07.550Z,24.57
2018-01-14T15:45:36.182Z,22.80
2018-01-14T15:48:04.534Z,22.70
2018-01-14T15:50:32.958Z,22.17
2018-01-14T15:53:01.314Z,23.97
2018-01-14T15:55:29.674Z,22.57
2018-01-14T15:57:58.293Z,24.83
2018-01-14T16:00:26.763Z,26.00
2018-01-14T16:02:55.323Z,27.90
2018-01-14T16:05:23.690Z,27.63
2018-01-14T16:07:52.266Z,31.20
2018-01-14T16:10:20.865Z,23.93
2018-01-14T16:12:49.387Z,23.47
2018-01-14T16:15:18.609Z,26.50
2018-01-14T16:17:47.133Z,25.20
2018-01-14T16:20:15.660Z,24.40
2018-01-14T16:22:44.997Z,25.90
2018-01-14T16:25:13.384Z,25.53
2018-01-14T16:27:41.770Z,24.20
2018-01-14T16:30:09.828Z,23.97
2018-01-14T16:32:38.186Z,24.87
2018-01-14T16:35:06.725Z,25.87
2018-01-14T16:37:35.100Z,27.67
2018-01-14T16:40:04.283Z,23.27
2018-01-14T16:42:32.699Z,20.20
2018-01-14T16:45:02.070Z,23.23
2018-01-14T16:47:30.561Z,25.40
2018-01-14T16:49:59.127Z,25.03
2018-01-14T16:52:27.896Z,25.37
2018-01-14T16:54:56.462Z,23.83
2018-01-14T16:57:24.999Z,23.50
2018-01-14T16:59:54.172Z,23.33
2018-01-14T17:02:22.567Z,28.83
2018-01-14T17:04:50.932Z,25.63
2018-01-14T17:07:19.552Z,24.40
2018-01-14T17:09:49.237Z,25.87
2018-01-14T17:12:17.693Z,24.50
2018-01-14T17:14:47.058Z,26.10
2018-01-14T17:17:15.843Z,24.17
2018-01-14T17:19:44.127Z,25.63
2018-01-14T17:22:12.589Z,25.27
2018-01-14T17:24:42.012Z,26.03
2018-01-14T17:27:10.600Z,25.77
2018-01-14T17:29:39.144Z,25.37
2018-01-14T17:32:08.291Z,24.57
2018-01-14T17:34:36.718Z,21.47
2018-01-14T17:37:05.948Z,28.17
2018-01-14T17:39:34.480Z,26.33
2018-01-14T17:42:03.084Z,22.40
2018-01-14T17:44:31.539Z,24.23
2018-01-14T17:46:59.953Z,25.97
2018-01-14T17:49:29.144Z,25.23
2018-01-14T17:51:58.801Z,30.93
2018-01-14T17:54:27.168Z,25.17
2018-01-14T17:56:55.709Z,24.97
2018-01-14T17:59:24.096Z,25.13
2018-01-14T18:01:52.684Z,29.43
2018-01-14T18:04:21.085Z,29.33
2018-01-14T18:06:49.467Z,28.53
2018-01-14T18:09:17.908Z,25.00
2018-01-14T18:11:47.035Z,28.70
2018-01-14T18:14:15.413Z,26.33
2018-01-14T18:16:55.093Z,24.03
2018-01-14T18:19:23.466Z,23.90
2018-01-14T18:21:51.966Z,23.50
2018-01-14T18:24:21.260Z,27.03
2018-01-14T18:26:50.947Z,27.70
2018-01-14T18:29:19.324Z,27.00
2018-01-14T18:31:47.741Z,27.13
2018-01-14T18:34:17.285Z,25.33
2018-01-14T18:36:45.809Z,27.80
2018-01-14T18:39:14.304Z,24.77
2018-01-14T18:41:42.863Z,29.07
2018-01-14T18:44:10.927Z,27.47
2018-01-14T18:46:39.381Z,24.47
2018-01-14T18:49:07.791Z,31.60
2018-01-14T18:51:36.990Z,27.17
2018-01-14T18:54:05.403Z,29.43
2018-01-14T18:56:34.626Z,28.37
2018-01-14T18:59:03.016Z,25.50
2018-01-14T19:01:31.389Z,30.50
2018-01-14T19:03:59.744Z,28.00
2018-01-14T19:06:28.139Z,29.90
2018-01-14T19:08:56.536Z,28.97
2018-01-14T19:11:24.923Z,25.93
2018-01-14T19:13:53.368Z,24.80
2018-01-14T19:16:21.789Z,27.30
2018-01-14T19:18:50.229Z,25.83
2018-01-14T19:21:18.663Z,29.97
2018-01-14T19:23:47.824Z,27.93
2018-01-14T19:26:16.207Z,26.60
2018-01-14T19:28:44.584Z,27.00
2018-01-14T19:31:13.065Z,24.07
2018-01-14T19:33:41.420Z,29.30
2018-01-14T19:36:10.084Z,28.33
2018-01-14T19:38:39.323Z,30.03
2018-01-14T19:41:08.320Z,28.87
2018-01-14T19:43:36.708Z,30.00
2018-01-14T19:46:05.876Z,28.23
2018-01-14T19:48:34.264Z,27.87
2018-01-14T19:51:02.728Z,26.03
2018-01-14T19:53:31.111Z,26.97
2018-01-14T19:55:59.527Z,27.80
2018-01-14T19:58:28.727Z,24.67
2018-01-14T20:00:57.117Z,26.83
2018-01-14T20:03:26.251Z,27.10
2018-01-14T20:05:54.892Z,27.53
2018-01-14T20:08:23.437Z,29.03
2018-01-14T20:10:52.045Z,24.80
2018-01-14T20:13:20.586Z,26.87
2018-01-14T20:15:49.128Z,28.90
2018-01-14T20:18:18.314Z,27.30
2018-01-14T20:20:46.886Z,28.40
2018-01-14T20:23:15.385Z,28.23
2018-01-14T20:25:44.788Z,22.17
2018-01-14T20:28:14.159Z,23.30
2018-01-14T20:30:42.574Z,26.63
2018-01-14T20:33:11.736Z,26.93
2018-01-14T20:35:40.402Z,28.93
2018-01-14T20:38:08.832Z,24.73
2018-01-14T20:40:38.025Z,31.20
2018-01-14T20:43:07.333Z,27.53
2018-01-14T20:45:36.497Z,29.53
2018-01-14T20:48:04.916Z,28.60
2018-01-14T20:50:33.299Z,31.57
2018-01-14T20:53:01.716Z,28.07
2018-01-14T20:55:30.333Z,27.70
2018-01-14T20:57:58.870Z,24.50
2018-01-14T21:00:27.261Z,29.10
2018-01-14T21:02:55.670Z,28.37
2018-01-14T21:05:24.102Z,30.53
2018-01-14T21:07:52.633Z,27.27
2018-01-14T21:10:21.063Z,31.00
2018-01-14T21:12:49.142Z,29.40
2018-01-14T21:15:17.524Z,26.83
2018-01-14T21:17:45.931Z,29.90
2018-01-14T21:20:14.384Z,31.30
2018-01-14T21:22:42.927Z,28.97
2018-01-14T21:25:11.347Z,30.83
2018-01-14T21:27:39.825Z,30.00
2018-01-14T21:30:08.794Z,32.13
2018-01-14T21:32:37.400Z,29.40
2018-01-14T21:35:07.208Z,29.57
2018-01-14T21:37:35.598Z,27.87
2018-01-14T21:40:03.668Z,27.47
2018-01-14T21:42:32.240Z,27.37
2018-01-14T21:45:00.647Z,30.43
2018-01-14T21:47:29.054Z,26.67
2018-01-14T21:49:58.231Z,32.10
2018-01-14T21:52:26.614Z,38.07
2018-01-14T21:54:56.638Z,30.20
2018-01-14T21:57:25.057Z,30.80
2018-01-14T21:59:53.453Z,30.87
2018-01-14T22:02:21.914Z,29.20
2018-01-14T22:04:50.364Z,32.90
2018-01-14T22:07:19.519Z,29.63
2018-01-14T22:09:47.965Z,31.87
2018-01-14T22:12:16.549Z,29.17
2018-01-14T22:14:44.944Z,29.53
2018-01-14T22:17:13.343Z,28.40
2018-01-14T22:19:41.716Z,29.97
2018-01-14T22:22:10.090Z,31.90
2018-01-14T22:24:38.519Z,31.00
2018-01-14T22:27:07.031Z,31.60
2018-01-14T22:29:35.411Z,28.73
2018-01-14T22:32:03.912Z,34.20
2018-01-14T22:34:32.523Z,30.67
2018-01-14T22:37:00.963Z,29.40
2018-01-14T22:39:29.362Z,30.53
2018-01-14T22:41:57.807Z,33.13
2018-01-14T22:44:26.170Z,33.40
2018-01-14T22:46:54.722Z,27.47
2018-01-14T22:49:23.866Z,27.53
2018-01-14T22:51:52.548Z,32.40
2018-01-14T22:54:20.965Z,32.30
2018-01-14T22:56:49.357Z,29.53
2018-01-14T22:59:18.327Z,35.40
2018-01-14T23:01:46.671Z,30.80
2018-01-14T23:04:15.041Z,28.60
2018-01-14T23:06:43.439Z,31.83
2018-01-14T23:09:11.829Z,32.67
2018-01-14T23:11:40.352Z,33.23
2018-01-14T23:14:09.518Z,33.50
2018-01-14T23:16:38.142Z,31.03
2018-01-14T23:19:06.571Z,27.67
2018-01-14T23:21:34.961Z,32.57
2018-01-14T23:24:03.367Z,27.60
2018-01-14T23:26:32.616Z,29.00
2018-01-14T23:29:01.131Z,31.40
2018-01-14T23:31:30.316Z,29.60
2018-01-14T23:33:58.713Z,34.97
2018-01-14T23:36:27.900Z,28.90
2018-01-14T23:38:57.086Z,35.27
2018-01-14T23:41:25.686Z,34.60
2018-01-14T23:43:55.782Z,28.90
2018-01-14T23:46:24.290Z,25.70
2018-01-14T23:48:52.740Z,29.53
2018-01-14T23:51:21.152Z,30.93
2018-01-14T23:53:50.541Z,25.60
2018-01-14T23:56:18.914Z,28.10
2018-01-14T23:58:47.288Z,27.70
